sensor_id;sensor_type;location;lat;lon;timestamp;temperature;humidity
51595;DHT22;37677;53.254;6.594;2023-04-03T00:01:56;2.20;1.00
51595;DHT22;37677;53.254;6.594;2023-04-03T00:04:21;2.30;1.00
51595;DHT22;37677;53.254;6.594;2023-04-03T00:06:47;3.60;1.00
51595;DHT22;37677;53.254;6.594;2023-04-03T00:09:13;2.60;99.90
51595;DHT22;37677;53.254;6.594;2023-04-03T00:11:38;2.60;99.90
51595;DHT22;37677;53.254;6.594;2023-04-03T00:14:04;2.60;99.90
51595;DHT22;37677;53.254;6.594;2023-04-03T00:16:30;2.70;99.90
51595;DHT22;37677;53.254;6.594;2023-04-03T00:18:55;3.40;99.90
51595;DHT22;37677;53.254;6.594;2023-04-03T00:21:21;3.10;99.90
51595;DHT22;37677;53.254;6.594;2023-04-03T00:23:47;3.00;99.90
51595;DHT22;37677;53.254;6.594;2023-04-03T00:26:12;2.60;99.90
51595;DHT22;37677;53.254;6.594;2023-04-03T00:28:38;2.80;99.90
51595;DHT22;37677;53.254;6.594;2023-04-03T00:31:04;3.50;99.90
51595;DHT22;37677;53.254;6.594;2023-04-03T00:38:21;2.50;99.90
51595;DHT22;37677;53.254;6.594;2023-04-03T00:40:48;3.10;99.90
51595;DHT22;37677;53.254;6.594;2023-04-03T00:45:43;2.30;99.90
51595;DHT22;37677;53.254;6.594;2023-04-03T00:48:12;3.00;99.90
51595;DHT22;37677;53.254;6.594;2023-04-03T00:50:40;1.60;99.90
51595;DHT22;37677;53.254;6.594;2023-04-03T00:53:07;2.80;99.90
51595;DHT22;37677;53.254;6.594;2023-04-03T00:55:36;3.00;99.90
51595;DHT22;37677;53.254;6.594;2023-04-03T00:58:03;-1.60;99.90
51595;DHT22;37677;53.254;6.594;2023-04-03T01:00:32;3.00;99.90
51595;DHT22;37677;53.254;6.594;2023-04-03T01:02:58;3.10;99.90
51595;DHT22;37677;53.254;6.594;2023-04-03T01:05:24;3.00;99.90
51595;DHT22;37677;53.254;6.594;2023-04-03T01:07:51;2.60;99.90
51595;DHT22;37677;53.254;6.594;2023-04-03T01:10:18;2.00;99.90
51595;DHT22;37677;53.254;6.594;2023-04-03T01:12:48;2.10;99.90
51595;DHT22;37677;53.254;6.594;2023-04-03T01:15:18;2.10;99.90
51595;DHT22;37677;53.254;6.594;2023-04-03T01:17:47;2.80;99.90
51595;DHT22;37677;53.254;6.594;2023-04-03T01:25:37;3.00;99.90
51595;DHT22;37677;53.254;6.594;2023-04-03T01:28:04;3.00;99.90
51595;DHT22;37677;53.254;6.594;2023-04-03T01:30:34;3.20;99.90
51595;DHT22;37677;53.254;6.594;2023-04-03T01:33:00;3.30;99.90
51595;DHT22;37677;53.254;6.594;2023-04-03T01:35:26;2.90;99.90
51595;DHT22;37677;53.254;6.594;2023-04-03T01:40:19;2.00;99.90
51595;DHT22;37677;53.254;6.594;2023-04-03T01:42:44;3.40;99.90
51595;DHT22;37677;53.254;6.594;2023-04-03T01:50:03;2.30;99.90
51595;DHT22;37677;53.254;6.594;2023-04-03T01:52:29;1.40;99.90
51595;DHT22;37677;53.254;6.594;2023-04-03T01:54:55;1.80;99.90
51595;DHT22;37677;53.254;6.594;2023-04-03T01:57:21;3.60;99.90
51595;DHT22;37677;53.254;6.594;2023-04-03T02:02:12;2.40;99.90
51595;DHT22;37677;53.254;6.594;2023-04-03T02:14:25;1.90;99.90
51595;DHT22;37677;53.254;6.594;2023-04-03T02:16:52;3.80;99.90
51595;DHT22;37677;53.254;6.594;2023-04-03T02:19:19;3.20;99.90
51595;DHT22;37677;53.254;6.594;2023-04-03T02:24:10;3.60;1.00
51595;DHT22;37677;53.254;6.594;2023-04-03T02:26:36;3.10;1.00
51595;DHT22;37677;53.254;6.594;2023-04-03T02:29:02;0.50;1.00
51595;DHT22;37677;53.254;6.594;2023-04-03T02:31:28;3.00;1.00
51595;DHT22;37677;53.254;6.594;2023-04-03T02:33:53;1.90;1.00
51595;DHT22;37677;53.254;6.594;2023-04-03T02:36:19;3.20;1.00
51595;DHT22;37677;53.254;6.594;2023-04-03T02:38:45;2.60;1.00
51595;DHT22;37677;53.254;6.594;2023-04-03T02:41:12;2.60;1.00
51595;DHT22;37677;53.254;6.594;2023-04-03T02:43:38;2.20;1.00
51595;DHT22;37677;53.254;6.594;2023-04-03T02:53:23;1.50;1.00
51595;DHT22;37677;53.254;6.594;2023-04-03T03:00:41;2.30;1.00
51595;DHT22;37677;53.254;6.594;2023-04-03T03:03:07;1.30;1.00
51595;DHT22;37677;53.254;6.594;2023-04-03T03:05:33;2.90;1.00
51595;DHT22;37677;53.254;6.594;2023-04-03T03:10:25;1.60;1.00
51595;DHT22;37677;53.254;6.594;2023-04-03T03:12:50;2.50;1.00
51595;DHT22;37677;53.254;6.594;2023-04-03T03:15:16;2.80;1.00
51595;DHT22;37677;53.254;6.594;2023-04-03T03:17:43;1.60;1.00
51595;DHT22;37677;53.254;6.594;2023-04-03T03:20:09;2.20;1.00
51595;DHT22;37677;53.254;6.594;2023-04-03T03:25:02;1.90;1.00
51595;DHT22;37677;53.254;6.594;2023-04-03T03:27:28;2.20;1.00
51595;DHT22;37677;53.254;6.594;2023-04-03T03:34:46;2.50;1.00
51595;DHT22;37677;53.254;6.594;2023-04-03T03:39:37;0.80;1.00
51595;DHT22;37677;53.254;6.594;2023-04-03T03:46:56;0.40;1.00
51595;DHT22;37677;53.254;6.594;2023-04-03T03:49:21;0.30;1.00
51595;DHT22;37677;53.254;6.594;2023-04-03T03:54:13;-0.70;1.00
51595;DHT22;37677;53.254;6.594;2023-04-03T04:01:32;0.30;1.00
51595;DHT22;37677;53.254;6.594;2023-04-03T04:03:58;0.20;1.00
51595;DHT22;37677;53.254;6.594;2023-04-03T04:06:24;0.40;1.00
51595;DHT22;37677;53.254;6.594;2023-04-03T04:16:08;-0.80;1.00
51595;DHT22;37677;53.254;6.594;2023-04-03T04:21:01;-0.10;1.00
51595;DHT22;37677;53.254;6.594;2023-04-03T04:28:19;1.20;1.00
51595;DHT22;37677;53.254;6.594;2023-04-03T04:35:37;0.40;1.00
51595;DHT22;37677;53.254;6.594;2023-04-03T04:38:02;0.50;1.00
51595;DHT22;37677;53.254;6.594;2023-04-03T04:40:28;-1.30;1.00
51595;DHT22;37677;53.254;6.594;2023-04-03T04:42:54;1.00;1.00
51595;DHT22;37677;53.254;6.594;2023-04-03T04:45:20;0.60;1.00
51595;DHT22;37677;53.254;6.594;2023-04-03T04:47:46;0.00;1.00
51595;DHT22;37677;53.254;6.594;2023-04-03T04:50:12;0.40;1.00
51595;DHT22;37677;53.254;6.594;2023-04-03T04:52:38;0.70;1.00
51595;DHT22;37677;53.254;6.594;2023-04-03T04:55:04;0.60;1.00
51595;DHT22;37677;53.254;6.594;2023-04-03T04:57:30;-1.50;1.00
51595;DHT22;37677;53.254;6.594;2023-04-03T05:02:22;0.20;1.00
51595;DHT22;37677;53.254;6.594;2023-04-03T05:07:15;-0.60;1.00
51595;DHT22;37677;53.254;6.594;2023-04-03T05:14:34;0.80;1.00
51595;DHT22;37677;53.254;6.594;2023-04-03T05:16:59;-0.50;1.00
51595;DHT22;37677;53.254;6.594;2023-04-03T05:26:44;0.60;1.00
51595;DHT22;37677;53.254;6.594;2023-04-03T05:29:09;-0.10;1.00
51595;DHT22;37677;53.254;6.594;2023-04-03T05:31:35;-0.10;1.00
51595;DHT22;37677;53.254;6.594;2023-04-03T05:34:01;1.60;1.00
51595;DHT22;37677;53.254;6.594;2023-04-03T05:36:27;0.90;1.00
51595;DHT22;37677;53.254;6.594;2023-04-03T05:41:19;-0.40;1.00
51595;DHT22;37677;53.254;6.594;2023-04-03T05:43:46;-0.30;1.00
51595;DHT22;37677;53.254;6.594;2023-04-03T05:46:13;1.50;1.00
51595;DHT22;37677;53.254;6.594;2023-04-03T05:48:40;-0.90;1.00
51595;DHT22;37677;53.254;6.594;2023-04-03T05:51:06;-0.40;1.00
51595;DHT22;37677;53.254;6.594;2023-04-03T05:53:35;1.00;1.00
51595;DHT22;37677;53.254;6.594;2023-04-03T05:56:03;1.60;1.00
51595;DHT22;37677;53.254;6.594;2023-04-03T06:08:13;1.70;1.00
51595;DHT22;37677;53.254;6.594;2023-04-03T06:10:40;1.90;1.00
51595;DHT22;37677;53.254;6.594;2023-04-03T06:15:32;1.50;14.80
51595;DHT22;37677;53.254;6.594;2023-04-03T06:20:25;3.60;7.50
51595;DHT22;37677;53.254;6.594;2023-04-03T06:22:51;7.00;1.00
51595;DHT22;37677;53.254;6.594;2023-04-03T06:25:17;5.90;99.90
51595;DHT22;37677;53.254;6.594;2023-04-03T06:27:44;7.20;99.90
51595;DHT22;37677;53.254;6.594;2023-04-03T06:30:10;7.50;1.00
51595;DHT22;37677;53.254;6.594;2023-04-03T06:32:37;10.00;7.60
51595;DHT22;37677;53.254;6.594;2023-04-03T06:35:04;8.80;99.90
51595;DHT22;37677;53.254;6.594;2023-04-03T06:37:30;9.10;1.00
51595;DHT22;37677;53.254;6.594;2023-04-03T06:39:56;8.80;99.90
51595;DHT22;37677;53.254;6.594;2023-04-03T06:42:22;9.70;99.90
51595;DHT22;37677;53.254;6.594;2023-04-03T06:44:48;11.40;99.90
51595;DHT22;37677;53.254;6.594;2023-04-03T06:47:15;10.40;99.90
51595;DHT22;37677;53.254;6.594;2023-04-03T06:52:08;11.40;1.00
51595;DHT22;37677;53.254;6.594;2023-04-03T06:54:35;11.30;1.00
51595;DHT22;37677;53.254;6.594;2023-04-03T06:57:01;11.30;1.00
51595;DHT22;37677;53.254;6.594;2023-04-03T06:59:27;11.70;21.50
51595;DHT22;37677;53.254;6.594;2023-04-03T07:01:53;12.00;1.00
51595;DHT22;37677;53.254;6.594;2023-04-03T07:04:18;11.60;99.90
51595;DHT22;37677;53.254;6.594;2023-04-03T07:06:46;11.50;10.70
51595;DHT22;37677;53.254;6.594;2023-04-03T07:09:13;13.00;37.70
51595;DHT22;37677;53.254;6.594;2023-04-03T07:11:39;11.70;99.90
51595;DHT22;37677;53.254;6.594;2023-04-03T07:14:05;10.40;91.30
51595;DHT22;37677;53.254;6.594;2023-04-03T07:16:36;10.20;91.40
51595;DHT22;37677;53.254;6.594;2023-04-03T07:19:02;10.20;99.90
51595;DHT22;37677;53.254;6.594;2023-04-03T07:21:29;10.30;99.90
51595;DHT22;37677;53.254;6.594;2023-04-03T07:23:54;11.00;83.20
51595;DHT22;37677;53.254;6.594;2023-04-03T07:26:21;11.20;99.90
51595;DHT22;37677;53.254;6.594;2023-04-03T07:28:48;12.00;99.90
51595;DHT22;37677;53.254;6.594;2023-04-03T07:31:14;12.20;95.70
51595;DHT22;37677;53.254;6.594;2023-04-03T07:36:07;12.80;99.90
51595;DHT22;37677;53.254;6.594;2023-04-03T07:38:34;13.50;1.00
51595;DHT22;37677;53.254;6.594;2023-04-03T07:41:01;13.50;1.00
51595;DHT22;37677;53.254;6.594;2023-04-03T07:43:26;13.90;1.00
51595;DHT22;37677;53.254;6.594;2023-04-03T07:45:53;13.50;99.90
51595;DHT22;37677;53.254;6.594;2023-04-03T07:48:24;14.20;1.00
51595;DHT22;37677;53.254;6.594;2023-04-03T07:50:51;12.30;99.90
51595;DHT22;37677;53.254;6.594;2023-04-03T07:53:17;14.00;99.90
51595;DHT22;37677;53.254;6.594;2023-04-03T07:55:46;14.20;99.90
51595;DHT22;37677;53.254;6.594;2023-04-03T07:58:14;14.90;99.90
51595;DHT22;37677;53.254;6.594;2023-04-03T08:00:40;15.10;99.90
51595;DHT22;37677;53.254;6.594;2023-04-03T08:03:08;14.30;99.90
51595;DHT22;37677;53.254;6.594;2023-04-03T08:05:39;14.80;99.90
51595;DHT22;37677;53.254;6.594;2023-04-03T08:08:06;14.70;99.90
51595;DHT22;37677;53.254;6.594;2023-04-03T08:10:32;14.70;99.90
51595;DHT22;37677;53.254;6.594;2023-04-03T08:12:58;15.20;99.90
51595;DHT22;37677;53.254;6.594;2023-04-03T08:15:24;15.20;99.90
51595;DHT22;37677;53.254;6.594;2023-04-03T08:20:17;15.40;99.90
51595;DHT22;37677;53.254;6.594;2023-04-03T08:22:43;15.70;99.90
51595;DHT22;37677;53.254;6.594;2023-04-03T08:25:09;16.20;99.90
51595;DHT22;37677;53.254;6.594;2023-04-03T08:27:35;15.60;99.90
51595;DHT22;37677;53.254;6.594;2023-04-03T08:30:01;15.80;99.90
51595;DHT22;37677;53.254;6.594;2023-04-03T08:32:26;16.30;99.90
51595;DHT22;37677;53.254;6.594;2023-04-03T08:34:53;16.80;99.90
51595;DHT22;37677;53.254;6.594;2023-04-03T08:37:19;16.60;99.90
51595;DHT22;37677;53.254;6.594;2023-04-03T08:39:45;16.60;99.90
51595;DHT22;37677;53.254;6.594;2023-04-03T08:42:36;16.60;99.90
51595;DHT22;37677;53.254;6.594;2023-04-03T08:45:27;15.90;99.90
51595;DHT22;37677;53.254;6.594;2023-04-03T08:48:15;16.40;99.90
51595;DHT22;37677;53.254;6.594;2023-04-03T08:50:46;16.20;99.90
51595;DHT22;37677;53.254;6.594;2023-04-03T08:53:20;16.00;99.90
51595;DHT22;37677;53.254;6.594;2023-04-03T08:55:49;16.30;99.90
51595;DHT22;37677;53.254;6.594;2023-04-03T08:58:26;16.60;99.90
51595;DHT22;37677;53.254;6.594;2023-04-03T09:01:18;17.30;30.80
51595;DHT22;37677;53.254;6.594;2023-04-03T09:03:44;17.20;60.20
51595;DHT22;37677;53.254;6.594;2023-04-03T09:06:18;17.10;95.50
51595;DHT22;37677;53.254;6.594;2023-04-03T09:09:13;17.40;86.60
51595;DHT22;37677;53.254;6.594;2023-04-03T09:11:46;17.20;75.30
51595;DHT22;37677;53.254;6.594;2023-04-03T09:14:29;17.60;71.60
51595;DHT22;37677;53.254;6.594;2023-04-03T09:19:59;17.20;6.60
51595;DHT22;37677;53.254;6.594;2023-04-03T09:22:31;17.40;8.80
51595;DHT22;37677;53.254;6.594;2023-04-03T09:25:17;17.30;29.20
51595;DHT22;37677;53.254;6.594;2023-04-03T09:27:44;17.90;26.60
51595;DHT22;37677;53.254;6.594;2023-04-03T09:30:18;17.30;18.70
51595;DHT22;37677;53.254;6.594;2023-04-03T09:32:46;17.20;14.60
51595;DHT22;37677;53.254;6.594;2023-04-03T09:35:25;17.50;10.70
51595;DHT22;37677;53.254;6.594;2023-04-03T09:37:53;17.20;1.00
51595;DHT22;37677;53.254;6.594;2023-04-03T09:42:57;17.60;1.00
51595;DHT22;37677;53.254;6.594;2023-04-03T09:45:32;17.80;1.00
51595;DHT22;37677;53.254;6.594;2023-04-03T09:50:58;17.60;1.00
51595;DHT22;37677;53.254;6.594;2023-04-03T09:53:37;17.80;1.00
51595;DHT22;37677;53.254;6.594;2023-04-03T09:58:50;18.50;1.00
51595;DHT22;37677;53.254;6.594;2023-04-03T10:04:22;18.40;1.00
51595;DHT22;37677;53.254;6.594;2023-04-03T10:06:57;18.30;1.00
51595;DHT22;37677;53.254;6.594;2023-04-03T10:09:23;17.80;1.00
51595;DHT22;37677;53.254;6.594;2023-04-03T10:14:56;17.60;1.00
51595;DHT22;37677;53.254;6.594;2023-04-03T10:20:26;17.10;1.00
51595;DHT22;37677;53.254;6.594;2023-04-03T10:25:30;17.10;1.00
51595;DHT22;37677;53.254;6.594;2023-04-03T10:28:18;16.80;1.00
51595;DHT22;37677;53.254;6.594;2023-04-03T10:30:51;17.20;1.00
51595;DHT22;37677;53.254;6.594;2023-04-03T11:20:13;17.70;1.00
51595;DHT22;37677;53.254;6.594;2023-04-03T11:22:48;16.10;1.00
51595;DHT22;37677;53.254;6.594;2023-04-03T11:25:24;16.50;1.00
51595;DHT22;37677;53.254;6.594;2023-04-03T11:28:02;16.20;1.00
51595;DHT22;37677;53.254;6.594;2023-04-03T11:35:47;14.70;1.00
51595;DHT22;37677;53.254;6.594;2023-04-03T11:38:33;14.70;1.00
51595;DHT22;37677;53.254;6.594;2023-04-03T11:41:04;13.80;1.00
51595;DHT22;37677;53.254;6.594;2023-04-03T11:43:33;13.40;1.00
51595;DHT22;37677;53.254;6.594;2023-04-03T11:46:05;13.50;1.00
51595;DHT22;37677;53.254;6.594;2023-04-03T11:53:39;12.40;3.40
51595;DHT22;37677;53.254;6.594;2023-04-03T12:01:48;11.80;1.00
51595;DHT22;37677;53.254;6.594;2023-04-03T12:04:16;11.70;40.80
51595;DHT22;37677;53.254;6.594;2023-04-03T12:06:49;11.90;43.40
51595;DHT22;37677;53.254;6.594;2023-04-03T12:11:49;11.40;36.10
51595;DHT22;37677;53.254;6.594;2023-04-03T12:16:46;11.30;1.00
51595;DHT22;37677;53.254;6.594;2023-04-03T12:24:31;10.80;1.00
51595;DHT22;37677;53.254;6.594;2023-04-03T12:29:37;10.60;14.10
51595;DHT22;37677;53.254;6.594;2023-04-03T12:32:35;10.80;19.60
51595;DHT22;37677;53.254;6.594;2023-04-03T12:46:21;10.50;3.70
51595;DHT22;37677;53.254;6.594;2023-04-03T12:48:58;10.80;61.70
51595;DHT22;37677;53.254;6.594;2023-04-03T12:51:39;10.40;60.70
51595;DHT22;37677;53.254;6.594;2023-04-03T13:00:20;10.70;20.00
51595;DHT22;37677;53.254;6.594;2023-04-03T13:02:46;10.50;35.60
51595;DHT22;37677;53.254;6.594;2023-04-03T13:05:18;10.60;41.30
51595;DHT22;37677;53.254;6.594;2023-04-03T13:07:49;10.40;51.10
51595;DHT22;37677;53.254;6.594;2023-04-03T13:10:18;10.50;50.90
51595;DHT22;37677;53.254;6.594;2023-04-03T13:15:28;10.50;42.60
51595;DHT22;37677;53.254;6.594;2023-04-03T13:17:55;10.60;11.90
51595;DHT22;37677;53.254;6.594;2023-04-03T13:20:36;10.60;48.20
51595;DHT22;37677;53.254;6.594;2023-04-03T13:23:04;10.60;49.80
51595;DHT22;37677;53.254;6.594;2023-04-03T13:25:33;10.40;56.20
51595;DHT22;37677;53.254;6.594;2023-04-03T13:28:01;10.60;60.00
51595;DHT22;37677;53.254;6.594;2023-04-03T13:30:33;10.40;58.60
51595;DHT22;37677;53.254;6.594;2023-04-03T13:33:21;10.40;63.30
51595;DHT22;37677;53.254;6.594;2023-04-03T13:35:47;10.10;25.20
51595;DHT22;37677;53.254;6.594;2023-04-03T13:40:51;9.80;6.10
51595;DHT22;37677;53.254;6.594;2023-04-03T13:43:21;10.00;16.60
51595;DHT22;37677;53.254;6.594;2023-04-03T13:48:36;9.70;71.10
51595;DHT22;37677;53.254;6.594;2023-04-03T13:53:52;9.80;99.90
51595;DHT22;37677;53.254;6.594;2023-04-03T13:56:37;10.00;99.90
51595;DHT22;37677;53.254;6.594;2023-04-03T13:59:27;9.70;86.40
51595;DHT22;37677;53.254;6.594;2023-04-03T14:02:09;9.60;99.90
51595;DHT22;37677;53.254;6.594;2023-04-03T14:07:12;9.80;18.70
51595;DHT22;37677;53.254;6.594;2023-04-03T14:09:38;9.80;87.20
51595;DHT22;37677;53.254;6.594;2023-04-03T14:15:02;9.50;60.10
51595;DHT22;37677;53.254;6.594;2023-04-03T14:17:28;9.40;96.90
51595;DHT22;37677;53.254;6.594;2023-04-03T14:19:55;9.40;93.10
51595;DHT22;37677;53.254;6.594;2023-04-03T14:22:22;9.40;98.80
51595;DHT22;37677;53.254;6.594;2023-04-03T14:24:49;9.90;95.60
51595;DHT22;37677;53.254;6.594;2023-04-03T14:27:23;9.30;92.60
51595;DHT22;37677;53.254;6.594;2023-04-03T14:29:50;9.30;95.70
51595;DHT22;37677;53.254;6.594;2023-04-03T14:32:18;9.40;94.40
51595;DHT22;37677;53.254;6.594;2023-04-03T14:34:44;9.40;99.90
51595;DHT22;37677;53.254;6.594;2023-04-03T14:37:13;9.50;99.90
51595;DHT22;37677;53.254;6.594;2023-04-03T14:39:39;9.40;99.90
51595;DHT22;37677;53.254;6.594;2023-04-03T14:42:06;9.40;99.90
51595;DHT22;37677;53.254;6.594;2023-04-03T14:44:33;9.70;99.90
51595;DHT22;37677;53.254;6.594;2023-04-03T14:46:59;10.20;99.90
51595;DHT22;37677;53.254;6.594;2023-04-03T14:49:29;9.60;99.90
51595;DHT22;37677;53.254;6.594;2023-04-03T14:51:56;9.50;99.90
51595;DHT22;37677;53.254;6.594;2023-04-03T14:54:23;9.70;99.90
51595;DHT22;37677;53.254;6.594;2023-04-03T14:56:54;11.00;99.90
51595;DHT22;37677;53.254;6.594;2023-04-03T14:59:21;9.80;99.90
51595;DHT22;37677;53.254;6.594;2023-04-03T15:01:47;9.90;96.80
51595;DHT22;37677;53.254;6.594;2023-04-03T15:04:19;9.70;89.20
51595;DHT22;37677;53.254;6.594;2023-04-03T15:06:46;9.80;49.80
51595;DHT22;37677;53.254;6.594;2023-04-03T15:09:22;10.00;98.00
51595;DHT22;37677;53.254;6.594;2023-04-03T15:11:51;9.60;65.20
51595;DHT22;37677;53.254;6.594;2023-04-03T15:14:17;9.50;94.80
51595;DHT22;37677;53.254;6.594;2023-04-03T15:16:43;9.50;95.90
51595;DHT22;37677;53.254;6.594;2023-04-03T15:19:10;10.20;93.60
51595;DHT22;37677;53.254;6.594;2023-04-03T15:21:35;9.30;97.40
51595;DHT22;37677;53.254;6.594;2023-04-03T15:24:01;9.30;95.10
51595;DHT22;37677;53.254;6.594;2023-04-03T15:26:27;9.20;94.80
51595;DHT22;37677;53.254;6.594;2023-04-03T15:28:53;9.20;99.90
51595;DHT22;37677;53.254;6.594;2023-04-03T15:31:18;8.30;99.90
51595;DHT22;37677;53.254;6.594;2023-04-03T15:33:44;8.10;99.90
51595;DHT22;37677;53.254;6.594;2023-04-03T15:36:10;9.00;99.90
51595;DHT22;37677;53.254;6.594;2023-04-03T15:38:36;10.10;99.90
51595;DHT22;37677;53.254;6.594;2023-04-03T15:41:04;9.00;99.90
51595;DHT22;37677;53.254;6.594;2023-04-03T15:43:30;8.70;99.90
51595;DHT22;37677;53.254;6.594;2023-04-03T15:45:57;8.60;99.90
51595;DHT22;37677;53.254;6.594;2023-04-03T15:48:24;9.90;99.90
51595;DHT22;37677;53.254;6.594;2023-04-03T15:50:49;9.50;99.90
51595;DHT22;37677;53.254;6.594;2023-04-03T15:53:15;8.70;99.90
51595;DHT22;37677;53.254;6.594;2023-04-03T15:55:42;8.80;99.90
51595;DHT22;37677;53.254;6.594;2023-04-03T15:58:08;8.60;99.90
51595;DHT22;37677;53.254;6.594;2023-04-03T16:00:35;8.50;99.90
51595;DHT22;37677;53.254;6.594;2023-04-03T16:03:14;8.40;99.90
51595;DHT22;37677;53.254;6.594;2023-04-03T16:05:41;8.20;99.90
51595;DHT22;37677;53.254;6.594;2023-04-03T16:08:07;8.50;99.90
51595;DHT22;37677;53.254;6.594;2023-04-03T16:10:35;9.50;99.90
51595;DHT22;37677;53.254;6.594;2023-04-03T16:13:01;8.60;99.90
51595;DHT22;37677;53.254;6.594;2023-04-03T16:15:27;8.60;99.90
51595;DHT22;37677;53.254;6.594;2023-04-03T16:17:53;8.00;99.90
51595;DHT22;37677;53.254;6.594;2023-04-03T16:20:19;9.40;99.90
51595;DHT22;37677;53.254;6.594;2023-04-03T16:22:47;7.80;99.90
51595;DHT22;37677;53.254;6.594;2023-04-03T16:25:13;8.10;99.90
51595;DHT22;37677;53.254;6.594;2023-04-03T16:27:39;8.10;99.90
51595;DHT22;37677;53.254;6.594;2023-04-03T16:30:07;7.90;99.90
51595;DHT22;37677;53.254;6.594;2023-04-03T16:32:33;8.00;99.90
51595;DHT22;37677;53.254;6.594;2023-04-03T16:35:00;7.10;99.90
51595;DHT22;37677;53.254;6.594;2023-04-03T16:37:25;7.70;99.90
51595;DHT22;37677;53.254;6.594;2023-04-03T16:39:52;7.60;99.90
51595;DHT22;37677;53.254;6.594;2023-04-03T16:42:17;7.90;99.90
51595;DHT22;37677;53.254;6.594;2023-04-03T16:44:43;8.40;99.90
51595;DHT22;37677;53.254;6.594;2023-04-03T16:47:09;8.40;99.90
51595;DHT22;37677;53.254;6.594;2023-04-03T16:49:35;8.10;99.90
51595;DHT22;37677;53.254;6.594;2023-04-03T16:52:02;7.40;99.90
51595;DHT22;37677;53.254;6.594;2023-04-03T16:54:28;7.40;99.90
51595;DHT22;37677;53.254;6.594;2023-04-03T16:56:54;6.70;99.90
51595;DHT22;37677;53.254;6.594;2023-04-03T16:59:20;8.30;1.00
51595;DHT22;37677;53.254;6.594;2023-04-03T17:01:45;7.20;1.00
51595;DHT22;37677;53.254;6.594;2023-04-03T17:04:11;7.20;1.00
51595;DHT22;37677;53.254;6.594;2023-04-03T17:06:38;7.20;1.00
51595;DHT22;37677;53.254;6.594;2023-04-03T17:09:04;7.20;1.00
51595;DHT22;37677;53.254;6.594;2023-04-03T17:11:31;7.10;1.00
51595;DHT22;37677;53.254;6.594;2023-04-03T17:13:57;7.60;1.00
51595;DHT22;37677;53.254;6.594;2023-04-03T17:16:23;7.00;5.90
51595;DHT22;37677;53.254;6.594;2023-04-03T17:18:50;7.40;94.10
51595;DHT22;37677;53.254;6.594;2023-04-03T17:21:17;7.00;50.00
51595;DHT22;37677;53.254;6.594;2023-04-03T17:23:46;7.10;99.90
51595;DHT22;37677;53.254;6.594;2023-04-03T17:26:12;8.00;99.90
51595;DHT22;37677;53.254;6.594;2023-04-03T17:28:38;6.40;99.90
51595;DHT22;37677;53.254;6.594;2023-04-03T17:31:05;7.70;99.90
51595;DHT22;37677;53.254;6.594;2023-04-03T17:33:31;8.10;99.90
51595;DHT22;37677;53.254;6.594;2023-04-03T17:35:58;6.70;99.90
51595;DHT22;37677;53.254;6.594;2023-04-03T17:38:24;6.20;1.00
51595;DHT22;37677;53.254;6.594;2023-04-03T17:40:50;6.40;99.90
51595;DHT22;37677;53.254;6.594;2023-04-03T17:43:16;6.30;1.00
51595;DHT22;37677;53.254;6.594;2023-04-03T17:45:41;6.20;1.00
51595;DHT22;37677;53.254;6.594;2023-04-03T17:48:07;6.30;99.90
51595;DHT22;37677;53.254;6.594;2023-04-03T17:50:33;6.40;86.10
51595;DHT22;37677;53.254;6.594;2023-04-03T17:52:58;6.10;57.40
51595;DHT22;37677;53.254;6.594;2023-04-03T17:55:24;5.40;99.90
51595;DHT22;37677;53.254;6.594;2023-04-03T17:57:49;6.00;99.90
51595;DHT22;37677;53.254;6.594;2023-04-03T18:00:16;6.00;1.00
51595;DHT22;37677;53.254;6.594;2023-04-03T18:02:42;5.80;1.00
51595;DHT22;37677;53.254;6.594;2023-04-03T18:05:09;6.00;99.90
51595;DHT22;37677;53.254;6.594;2023-04-03T18:07:36;5.70;42.90
51595;DHT22;37677;53.254;6.594;2023-04-03T18:10:04;6.10;99.90
51595;DHT22;37677;53.254;6.594;2023-04-03T18:12:32;4.50;53.00
51595;DHT22;37677;53.254;6.594;2023-04-03T18:14:59;5.10;1.00
51595;DHT22;37677;53.254;6.594;2023-04-03T18:17:25;5.40;1.00
51595;DHT22;37677;53.254;6.594;2023-04-03T18:19:53;5.20;45.50
51595;DHT22;37677;53.254;6.594;2023-04-03T18:22:22;6.00;79.80
51595;DHT22;37677;53.254;6.594;2023-04-03T18:24:50;3.80;99.90
51595;DHT22;37677;53.254;6.594;2023-04-03T18:27:20;5.00;99.90
51595;DHT22;37677;53.254;6.594;2023-04-03T18:29:57;5.50;99.90
51595;DHT22;37677;53.254;6.594;2023-04-03T18:32:23;4.20;99.90
51595;DHT22;37677;53.254;6.594;2023-04-03T18:34:49;4.60;1.00
51595;DHT22;37677;53.254;6.594;2023-04-03T18:37:15;4.60;1.00
51595;DHT22;37677;53.254;6.594;2023-04-03T18:39:41;6.00;99.90
51595;DHT22;37677;53.254;6.594;2023-04-03T18:42:12;4.50;29.90
51595;DHT22;37677;53.254;6.594;2023-04-03T18:44:41;4.60;1.00
51595;DHT22;37677;53.254;6.594;2023-04-03T18:47:07;5.40;1.00
51595;DHT22;37677;53.254;6.594;2023-04-03T18:49:35;4.50;99.90
51595;DHT22;37677;53.254;6.594;2023-04-03T18:52:02;4.50;17.10
51595;DHT22;37677;53.254;6.594;2023-04-03T18:54:27;4.50;1.00
51595;DHT22;37677;53.254;6.594;2023-04-03T18:56:53;4.50;75.30
51595;DHT22;37677;53.254;6.594;2023-04-03T18:59:19;3.80;11.30
51595;DHT22;37677;53.254;6.594;2023-04-03T19:01:46;4.20;1.00
51595;DHT22;37677;53.254;6.594;2023-04-03T19:04:11;3.20;96.70
51595;DHT22;37677;53.254;6.594;2023-04-03T19:06:37;3.90;48.70
51595;DHT22;37677;53.254;6.594;2023-04-03T19:09:05;3.50;1.00
51595;DHT22;37677;53.254;6.594;2023-04-03T19:11:31;3.80;1.00
51595;DHT22;37677;53.254;6.594;2023-04-03T19:13:58;4.60;67.40
51595;DHT22;37677;53.254;6.594;2023-04-03T19:16:24;4.40;53.10
51595;DHT22;37677;53.254;6.594;2023-04-03T19:18:50;3.60;99.90
51595;DHT22;37677;53.254;6.594;2023-04-03T19:21:16;2.80;99.90
51595;DHT22;37677;53.254;6.594;2023-04-03T19:23:42;3.90;99.90
51595;DHT22;37677;53.254;6.594;2023-04-03T19:26:11;3.00;1.00
51595;DHT22;37677;53.254;6.594;2023-04-03T19:28:38;3.70;99.90
51595;DHT22;37677;53.254;6.594;2023-04-03T19:31:12;3.90;99.90
51595;DHT22;37677;53.254;6.594;2023-04-03T19:33:38;3.60;99.90
51595;DHT22;37677;53.254;6.594;2023-04-03T19:36:06;4.40;99.90
51595;DHT22;37677;53.254;6.594;2023-04-03T19:38:31;4.10;1.00
51595;DHT22;37677;53.254;6.594;2023-04-03T19:40:57;3.80;1.00
51595;DHT22;37677;53.254;6.594;2023-04-03T19:43:23;4.20;99.90
51595;DHT22;37677;53.254;6.594;2023-04-03T19:45:49;3.60;1.00
51595;DHT22;37677;53.254;6.594;2023-04-03T19:48:15;3.20;99.90
51595;DHT22;37677;53.254;6.594;2023-04-03T19:50:40;3.40;99.90
51595;DHT22;37677;53.254;6.594;2023-04-03T19:53:06;2.80;99.90
51595;DHT22;37677;53.254;6.594;2023-04-03T19:55:35;3.80;94.30
51595;DHT22;37677;53.254;6.594;2023-04-03T19:58:04;3.60;84.70
51595;DHT22;37677;53.254;6.594;2023-04-03T20:00:30;3.60;11.00
51595;DHT22;37677;53.254;6.594;2023-04-03T20:02:56;3.70;1.00
51595;DHT22;37677;53.254;6.594;2023-04-03T20:05:23;3.70;1.00
51595;DHT22;37677;53.254;6.594;2023-04-03T20:07:49;3.20;99.90
51595;DHT22;37677;53.254;6.594;2023-04-03T20:10:15;3.90;99.90
51595;DHT22;37677;53.254;6.594;2023-04-03T20:12:42;4.10;99.90
51595;DHT22;37677;53.254;6.594;2023-04-03T20:15:08;3.70;99.90